sensor_id;sensor_type;location;lat;lon;timestamp;temperature;humidity
7562;DHT22;3822;48.784;9.174;2023-08-08T00:01:15;16.30;89.80
7562;DHT22;3822;48.784;9.174;2023-08-08T00:03:43;16.30;89.90
7562;DHT22;3822;48.784;9.174;2023-08-08T00:06:16;16.30;90.00
7562;DHT22;3822;48.784;9.174;2023-08-08T00:08:42;16.40;90.00
7562;DHT22;3822;48.784;9.174;2023-08-08T00:11:08;16.40;90.00
7562;DHT22;3822;48.784;9.174;2023-08-08T00:13:37;16.40;90.00
7562;DHT22;3822;48.784;9.174;2023-08-08T00:16:06;16.40;90.00
7562;DHT22;3822;48.784;9.174;2023-08-08T00:18:33;16.40;90.00
7562;DHT22;3822;48.784;9.174;2023-08-08T00:21:02;16.40;90.00
7562;DHT22;3822;48.784;9.174;2023-08-08T00:23:28;16.40;90.10
7562;DHT22;3822;48.784;9.174;2023-08-08T00:25:55;16.40;90.10
7562;DHT22;3822;48.784;9.174;2023-08-08T00:28:21;16.40;90.10
7562;DHT22;3822;48.784;9.174;2023-08-08T00:30:53;16.40;90.10
7562;DHT22;3822;48.784;9.174;2023-08-08T00:33:19;16.40;90.10
7562;DHT22;3822;48.784;9.174;2023-08-08T00:35:45;16.50;90.20
7562;DHT22;3822;48.784;9.174;2023-08-08T00:38:13;16.50;90.20
7562;DHT22;3822;48.784;9.174;2023-08-08T00:40:42;16.50;90.20
7562;DHT22;3822;48.784;9.174;2023-08-08T00:43:09;16.50;90.20
7562;DHT22;3822;48.784;9.174;2023-08-08T00:45:38;16.50;90.20
7562;DHT22;3822;48.784;9.174;2023-08-08T00:48:06;16.50;90.20
7562;DHT22;3822;48.784;9.174;2023-08-08T00:50:33;16.60;90.20
7562;DHT22;3822;48.784;9.174;2023-08-08T00:53:03;16.60;90.20
7562;DHT22;3822;48.784;9.174;2023-08-08T00:55:30;16.60;90.20
7562;DHT22;3822;48.784;9.174;2023-08-08T00:57:57;16.60;90.20
7562;DHT22;3822;48.784;9.174;2023-08-08T01:00:25;16.50;90.20
7562;DHT22;3822;48.784;9.174;2023-08-08T01:02:52;16.60;90.20
7562;DHT22;3822;48.784;9.174;2023-08-08T01:05:18;16.60;90.20
7562;DHT22;3822;48.784;9.174;2023-08-08T01:10:40;16.60;90.20
7562;DHT22;3822;48.784;9.174;2023-08-08T01:13:12;16.60;90.20
7562;DHT22;3822;48.784;9.174;2023-08-08T01:15:41;16.60;90.20
7562;DHT22;3822;48.784;9.174;2023-08-08T01:18:09;16.70;90.30
7562;DHT22;3822;48.784;9.174;2023-08-08T01:20:37;16.70;90.30
7562;DHT22;3822;48.784;9.174;2023-08-08T01:26:04;16.70;90.30
7562;DHT22;3822;48.784;9.174;2023-08-08T01:28:31;16.70;90.30
7562;DHT22;3822;48.784;9.174;2023-08-08T01:30:57;16.70;90.30
7562;DHT22;3822;48.784;9.174;2023-08-08T01:33:26;16.60;90.30
7562;DHT22;3822;48.784;9.174;2023-08-08T01:35:53;16.70;90.40
7562;DHT22;3822;48.784;9.174;2023-08-08T01:38:21;16.70;90.40
7562;DHT22;3822;48.784;9.174;2023-08-08T01:40:52;16.70;90.40
7562;DHT22;3822;48.784;9.174;2023-08-08T01:43:19;16.70;90.40
7562;DHT22;3822;48.784;9.174;2023-08-08T01:45:52;16.70;90.40
7562;DHT22;3822;48.784;9.174;2023-08-08T01:48:19;16.80;90.40
7562;DHT22;3822;48.784;9.174;2023-08-08T01:50:45;16.80;90.50
7562;DHT22;3822;48.784;9.174;2023-08-08T01:53:16;16.70;90.40
7562;DHT22;3822;48.784;9.174;2023-08-08T01:55:42;16.80;90.50
7562;DHT22;3822;48.784;9.174;2023-08-08T01:58:16;16.80;90.60
7562;DHT22;3822;48.784;9.174;2023-08-08T02:00:42;16.70;90.50
7562;DHT22;3822;48.784;9.174;2023-08-08T02:03:10;16.80;90.60
7562;DHT22;3822;48.784;9.174;2023-08-08T02:05:37;16.70;90.60
7562;DHT22;3822;48.784;9.174;2023-08-08T02:08:09;14.60;89.50
7562;DHT22;3822;48.784;9.174;2023-08-08T02:10:35;16.70;90.70
7562;DHT22;3822;48.784;9.174;2023-08-08T02:13:01;16.80;90.80
7562;DHT22;3822;48.784;9.174;2023-08-08T02:15:30;16.70;90.80
7562;DHT22;3822;48.784;9.174;2023-08-08T02:17:57;16.70;90.80
7562;DHT22;3822;48.784;9.174;2023-08-08T02:20:25;16.70;90.90
7562;DHT22;3822;48.784;9.174;2023-08-08T02:22:54;16.70;90.90
7562;DHT22;3822;48.784;9.174;2023-08-08T02:25:21;16.60;90.90
7562;DHT22;3822;48.784;9.174;2023-08-08T02:27:47;16.70;91.00
7562;DHT22;3822;48.784;9.174;2023-08-08T02:30:13;16.70;91.00
7562;DHT22;3822;48.784;9.174;2023-08-08T02:32:43;16.70;91.00
7562;DHT22;3822;48.784;9.174;2023-08-08T02:35:09;16.70;91.10
7562;DHT22;3822;48.784;9.174;2023-08-08T02:37:36;16.60;91.00
7562;DHT22;3822;48.784;9.174;2023-08-08T02:40:02;16.60;91.00
7562;DHT22;3822;48.784;9.174;2023-08-08T02:42:31;16.60;91.10
7562;DHT22;3822;48.784;9.174;2023-08-08T02:44:57;16.60;91.10
7562;DHT22;3822;48.784;9.174;2023-08-08T02:47:23;16.60;91.20
7562;DHT22;3822;48.784;9.174;2023-08-08T02:49:50;16.60;91.20
7562;DHT22;3822;48.784;9.174;2023-08-08T02:52:19;16.50;91.20
7562;DHT22;3822;48.784;9.174;2023-08-08T02:54:48;16.50;91.30
7562;DHT22;3822;48.784;9.174;2023-08-08T02:57:14;16.50;91.40
7562;DHT22;3822;48.784;9.174;2023-08-08T02:59:47;16.50;91.40
7562;DHT22;3822;48.784;9.174;2023-08-08T03:02:13;16.40;91.40
7562;DHT22;3822;48.784;9.174;2023-08-08T03:04:43;16.40;91.40
7562;DHT22;3822;48.784;9.174;2023-08-08T03:07:09;16.40;91.50
7562;DHT22;3822;48.784;9.174;2023-08-08T03:09:35;16.40;91.50
7562;DHT22;3822;48.784;9.174;2023-08-08T03:12:02;16.30;91.50
7562;DHT22;3822;48.784;9.174;2023-08-08T03:14:30;16.30;91.60
7562;DHT22;3822;48.784;9.174;2023-08-08T03:16:59;16.30;91.70
7562;DHT22;3822;48.784;9.174;2023-08-08T03:19:26;16.30;91.70
7562;DHT22;3822;48.784;9.174;2023-08-08T03:21:54;16.30;91.70
7562;DHT22;3822;48.784;9.174;2023-08-08T03:24:21;16.30;91.80
7562;DHT22;3822;48.784;9.174;2023-08-08T03:26:57;16.30;91.80
7562;DHT22;3822;48.784;9.174;2023-08-08T03:29:24;16.20;91.80
7562;DHT22;3822;48.784;9.174;2023-08-08T03:31:50;16.20;91.80
7562;DHT22;3822;48.784;9.174;2023-08-08T03:34:19;16.20;91.90
7562;DHT22;3822;48.784;9.174;2023-08-08T03:36:48;16.20;92.00
7562;DHT22;3822;48.784;9.174;2023-08-08T03:39:14;16.20;92.00
7562;DHT22;3822;48.784;9.174;2023-08-08T03:41:43;16.10;92.00
7562;DHT22;3822;48.784;9.174;2023-08-08T03:44:09;16.10;92.10
7562;DHT22;3822;48.784;9.174;2023-08-08T03:46:35;16.10;92.10
7562;DHT22;3822;48.784;9.174;2023-08-08T03:49:01;16.10;92.10
7562;DHT22;3822;48.784;9.174;2023-08-08T03:51:31;16.10;92.20
7562;DHT22;3822;48.784;9.174;2023-08-08T03:53:59;16.10;92.20
7562;DHT22;3822;48.784;9.174;2023-08-08T03:56:31;16.10;92.20
7562;DHT22;3822;48.784;9.174;2023-08-08T03:58:59;16.10;92.20
7562;DHT22;3822;48.784;9.174;2023-08-08T04:01:33;16.10;92.30
7562;DHT22;3822;48.784;9.174;2023-08-08T04:03:59;16.10;92.30
7562;DHT22;3822;48.784;9.174;2023-08-08T04:06:34;16.10;92.40
7562;DHT22;3822;48.784;9.174;2023-08-08T04:09:00;16.20;92.40
7562;DHT22;3822;48.784;9.174;2023-08-08T04:11:27;16.20;92.50
7562;DHT22;3822;48.784;9.174;2023-08-08T04:13:55;16.20;92.50
7562;DHT22;3822;48.784;9.174;2023-08-08T04:16:22;16.20;92.60
7562;DHT22;3822;48.784;9.174;2023-08-08T04:18:48;16.20;92.60
7562;DHT22;3822;48.784;9.174;2023-08-08T04:21:14;16.20;92.60
7562;DHT22;3822;48.784;9.174;2023-08-08T04:23:46;16.20;92.60
7562;DHT22;3822;48.784;9.174;2023-08-08T04:26:13;16.20;92.60
7562;DHT22;3822;48.784;9.174;2023-08-08T04:28:46;16.20;92.60
7562;DHT22;3822;48.784;9.174;2023-08-08T04:31:12;16.20;92.60
7562;DHT22;3822;48.784;9.174;2023-08-08T04:33:40;16.20;92.60
7562;DHT22;3822;48.784;9.174;2023-08-08T04:36:08;16.20;92.60
7562;DHT22;3822;48.784;9.174;2023-08-08T04:38:34;16.20;92.60
7562;DHT22;3822;48.784;9.174;2023-08-08T04:41:01;16.30;92.60
7562;DHT22;3822;48.784;9.174;2023-08-08T04:43:27;16.30;92.50
7562;DHT22;3822;48.784;9.174;2023-08-08T04:46:01;16.30;92.50
7562;DHT22;3822;48.784;9.174;2023-08-08T04:48:28;16.30;92.50
7562;DHT22;3822;48.784;9.174;2023-08-08T04:50:58;16.40;92.50
7562;DHT22;3822;48.784;9.174;2023-08-08T04:53:24;16.40;92.50
7562;DHT22;3822;48.784;9.174;2023-08-08T04:55:50;16.40;92.40
7562;DHT22;3822;48.784;9.174;2023-08-08T04:58:17;16.40;92.40
7562;DHT22;3822;48.784;9.174;2023-08-08T05:00:46;16.50;92.40
7562;DHT22;3822;48.784;9.174;2023-08-08T05:03:12;16.50;92.40
7562;DHT22;3822;48.784;9.174;2023-08-08T05:05:39;16.50;92.40
7562;DHT22;3822;48.784;9.174;2023-08-08T05:08:14;16.50;92.40
7562;DHT22;3822;48.784;9.174;2023-08-08T05:10:40;16.50;92.40
7562;DHT22;3822;48.784;9.174;2023-08-08T05:13:09;16.60;92.40
7562;DHT22;3822;48.784;9.174;2023-08-08T05:15:36;16.60;92.40
7562;DHT22;3822;48.784;9.174;2023-08-08T05:18:02;16.60;92.30
7562;DHT22;3822;48.784;9.174;2023-08-08T05:20:34;16.70;92.30
7562;DHT22;3822;48.784;9.174;2023-08-08T05:23:05;16.70;92.30
7562;DHT22;3822;48.784;9.174;2023-08-08T05:25:35;16.70;92.30
7562;DHT22;3822;48.784;9.174;2023-08-08T05:28:01;16.80;92.30
7562;DHT22;3822;48.784;9.174;2023-08-08T05:30:33;16.80;92.20
7562;DHT22;3822;48.784;9.174;2023-08-08T05:32:59;16.90;92.20
7562;DHT22;3822;48.784;9.174;2023-08-08T05:35:25;16.90;92.10
7562;DHT22;3822;48.784;9.174;2023-08-08T05:37:52;16.90;92.30
7562;DHT22;3822;48.784;9.174;2023-08-08T05:40:21;17.00;92.00
7562;DHT22;3822;48.784;9.174;2023-08-08T05:42:50;17.00;91.90
7562;DHT22;3822;48.784;9.174;2023-08-08T05:45:16;17.10;91.80
7562;DHT22;3822;48.784;9.174;2023-08-08T05:47:47;17.10;91.80
7562;DHT22;3822;48.784;9.174;2023-08-08T05:50:13;17.10;91.70
7562;DHT22;3822;48.784;9.174;2023-08-08T05:52:39;17.20;91.70
7562;DHT22;3822;48.784;9.174;2023-08-08T05:55:12;17.30;91.70
7562;DHT22;3822;48.784;9.174;2023-08-08T05:57:38;17.30;91.60
7562;DHT22;3822;48.784;9.174;2023-08-08T06:00:04;17.30;91.50
7562;DHT22;3822;48.784;9.174;2023-08-08T06:02:37;17.30;91.40
7562;DHT22;3822;48.784;9.174;2023-08-08T06:05:04;17.40;91.40
7562;DHT22;3822;48.784;9.174;2023-08-08T06:07:34;17.40;91.30
7562;DHT22;3822;48.784;9.174;2023-08-08T06:10:00;17.50;91.30
7562;DHT22;3822;48.784;9.174;2023-08-08T06:12:27;17.50;91.30
7562;DHT22;3822;48.784;9.174;2023-08-08T06:14:56;17.60;91.20
7562;DHT22;3822;48.784;9.174;2023-08-08T06:17:22;17.60;91.20
7562;DHT22;3822;48.784;9.174;2023-08-08T06:19:49;17.60;91.10
7562;DHT22;3822;48.784;9.174;2023-08-08T06:22:16;17.70;91.10
7562;DHT22;3822;48.784;9.174;2023-08-08T06:24:45;17.80;91.00
7562;DHT22;3822;48.784;9.174;2023-08-08T06:27:14;17.80;91.00
7562;DHT22;3822;48.784;9.174;2023-08-08T06:29:40;17.90;91.00
7562;DHT22;3822;48.784;9.174;2023-08-08T06:32:13;18.00;90.90
7562;DHT22;3822;48.784;9.174;2023-08-08T06:34:39;18.00;90.80
7562;DHT22;3822;48.784;9.174;2023-08-08T06:37:08;18.10;90.70
7562;DHT22;3822;48.784;9.174;2023-08-08T06:39:38;18.10;90.60
7562;DHT22;3822;48.784;9.174;2023-08-08T06:42:09;18.20;90.50
7562;DHT22;3822;48.784;9.174;2023-08-08T06:44:40;18.30;90.40
7562;DHT22;3822;48.784;9.174;2023-08-08T06:47:15;18.30;90.30
7562;DHT22;3822;48.784;9.174;2023-08-08T06:49:45;18.30;90.20
7562;DHT22;3822;48.784;9.174;2023-08-08T06:52:13;18.30;90.10
7562;DHT22;3822;48.784;9.174;2023-08-08T06:54:40;18.40;90.10
7562;DHT22;3822;48.784;9.174;2023-08-08T06:57:09;18.40;90.20
7562;DHT22;3822;48.784;9.174;2023-08-08T06:59:35;18.40;90.20
7562;DHT22;3822;48.784;9.174;2023-08-08T07:02:02;18.50;90.20
7562;DHT22;3822;48.784;9.174;2023-08-08T07:04:28;18.50;90.10
7562;DHT22;3822;48.784;9.174;2023-08-08T07:06:57;18.60;90.20
7562;DHT22;3822;48.784;9.174;2023-08-08T07:09:23;18.70;90.20
7562;DHT22;3822;48.784;9.174;2023-08-08T07:11:50;18.80;90.10
7562;DHT22;3822;48.784;9.174;2023-08-08T07:14:17;18.90;90.10
7562;DHT22;3822;48.784;9.174;2023-08-08T07:16:43;18.90;90.10
7562;DHT22;3822;48.784;9.174;2023-08-08T07:19:12;19.00;90.00
7562;DHT22;3822;48.784;9.174;2023-08-08T07:21:43;19.10;89.70
7562;DHT22;3822;48.784;9.174;2023-08-08T07:24:12;19.10;89.60
7562;DHT22;3822;48.784;9.174;2023-08-08T07:26:46;19.20;89.50
7562;DHT22;3822;48.784;9.174;2023-08-08T07:29:17;19.30;88.90
7562;DHT22;3822;48.784;9.174;2023-08-08T07:31:50;19.30;88.80
7562;DHT22;3822;48.784;9.174;2023-08-08T07:34:23;19.40;88.70
7562;DHT22;3822;48.784;9.174;2023-08-08T07:36:53;19.40;88.40
7562;DHT22;3822;48.784;9.174;2023-08-08T07:39:20;19.50;88.20
7562;DHT22;3822;48.784;9.174;2023-08-08T07:41:49;19.60;87.80
7562;DHT22;3822;48.784;9.174;2023-08-08T07:44:18;19.70;87.30
7562;DHT22;3822;48.784;9.174;2023-08-08T07:46:44;19.70;86.60
7562;DHT22;3822;48.784;9.174;2023-08-08T07:49:10;19.80;86.70
7562;DHT22;3822;48.784;9.174;2023-08-08T07:51:37;19.90;85.90
7562;DHT22;3822;48.784;9.174;2023-08-08T07:54:06;20.00;85.40
7562;DHT22;3822;48.784;9.174;2023-08-08T07:56:34;20.00;84.50
7562;DHT22;3822;48.784;9.174;2023-08-08T07:59:08;20.00;83.90
7562;DHT22;3822;48.784;9.174;2023-08-08T08:01:35;20.10;83.10
7562;DHT22;3822;48.784;9.174;2023-08-08T08:04:05;20.10;81.70
7562;DHT22;3822;48.784;9.174;2023-08-08T08:06:31;20.10;81.40
7562;DHT22;3822;48.784;9.174;2023-08-08T08:08:58;20.10;81.30
7562;DHT22;3822;48.784;9.174;2023-08-08T08:11:24;20.10;80.90
7562;DHT22;3822;48.784;9.174;2023-08-08T08:13:53;20.10;80.70
7562;DHT22;3822;48.784;9.174;2023-08-08T08:16:22;20.10;80.40
7562;DHT22;3822;48.784;9.174;2023-08-08T08:18:48;20.10;80.50
7562;DHT22;3822;48.784;9.174;2023-08-08T08:21:24;20.20;80.60
7562;DHT22;3822;48.784;9.174;2023-08-08T08:23:53;20.20;80.40
7562;DHT22;3822;48.784;9.174;2023-08-08T08:26:19;20.30;80.20
7562;DHT22;3822;48.784;9.174;2023-08-08T08:28:48;20.30;80.40
7562;DHT22;3822;48.784;9.174;2023-08-08T08:31:17;20.30;80.60
7562;DHT22;3822;48.784;9.174;2023-08-08T08:33:44;20.30;80.90
7562;DHT22;3822;48.784;9.174;2023-08-08T08:36:18;20.30;81.30
7562;DHT22;3822;48.784;9.174;2023-08-08T08:38:44;20.40;81.20
7562;DHT22;3822;48.784;9.174;2023-08-08T08:41:11;20.40;80.60
7562;DHT22;3822;48.784;9.174;2023-08-08T08:43:46;20.40;80.80
7562;DHT22;3822;48.784;9.174;2023-08-08T08:46:13;20.40;81.10
7562;DHT22;3822;48.784;9.174;2023-08-08T08:48:46;20.40;80.60
7562;DHT22;3822;48.784;9.174;2023-08-08T08:51:21;20.50;81.20
7562;DHT22;3822;48.784;9.174;2023-08-08T08:53:47;20.50;81.00
7562;DHT22;3822;48.784;9.174;2023-08-08T08:56:21;20.60;80.80
7562;DHT22;3822;48.784;9.174;2023-08-08T08:58:50;20.60;80.40
7562;DHT22;3822;48.784;9.174;2023-08-08T09:01:22;20.60;80.40
7562;DHT22;3822;48.784;9.174;2023-08-08T09:03:53;20.60;80.50
7562;DHT22;3822;48.784;9.174;2023-08-08T09:06:21;20.70;80.20
7562;DHT22;3822;48.784;9.174;2023-08-08T09:08:49;20.70;79.80
7562;DHT22;3822;48.784;9.174;2023-08-08T09:11:18;20.70;79.50
7562;DHT22;3822;48.784;9.174;2023-08-08T09:13:50;20.80;79.50
7562;DHT22;3822;48.784;9.174;2023-08-08T09:16:19;20.80;79.50
7562;DHT22;3822;48.784;9.174;2023-08-08T09:18:46;20.80;78.80
7562;DHT22;3822;48.784;9.174;2023-08-08T09:21:12;20.90;78.70
7562;DHT22;3822;48.784;9.174;2023-08-08T09:23:42;20.90;78.80
7562;DHT22;3822;48.784;9.174;2023-08-08T09:26:09;20.90;78.50
7562;DHT22;3822;48.784;9.174;2023-08-08T09:28:36;21.00;78.60
7562;DHT22;3822;48.784;9.174;2023-08-08T09:31:05;21.90;79.20
7562;DHT22;3822;48.784;9.174;2023-08-08T09:33:31;21.10;78.20
7562;DHT22;3822;48.784;9.174;2023-08-08T09:36:03;21.10;77.10
7562;DHT22;3822;48.784;9.174;2023-08-08T09:38:30;21.10;76.40
7562;DHT22;3822;48.784;9.174;2023-08-08T09:41:12;21.20;76.70
7562;DHT22;3822;48.784;9.174;2023-08-08T09:43:42;21.30;75.80
7562;DHT22;3822;48.784;9.174;2023-08-08T09:46:12;21.30;74.40
7562;DHT22;3822;48.784;9.174;2023-08-08T09:48:40;21.40;74.60
7562;DHT22;3822;48.784;9.174;2023-08-08T09:51:06;21.40;75.10
7562;DHT22;3822;48.784;9.174;2023-08-08T09:53:42;21.50;75.30
7562;DHT22;3822;48.784;9.174;2023-08-08T09:56:13;21.50;75.30
7562;DHT22;3822;48.784;9.174;2023-08-08T09:58:41;21.60;75.00
7562;DHT22;3822;48.784;9.174;2023-08-08T10:01:11;21.60;74.20
7562;DHT22;3822;48.784;9.174;2023-08-08T10:03:38;21.60;73.40
7562;DHT22;3822;48.784;9.174;2023-08-08T10:06:13;21.00;72.70
7562;DHT22;3822;48.784;9.174;2023-08-08T10:08:47;21.70;72.00
7562;DHT22;3822;48.784;9.174;2023-08-08T10:11:16;21.70;71.20
7562;DHT22;3822;48.784;9.174;2023-08-08T10:13:50;21.70;70.70
7562;DHT22;3822;48.784;9.174;2023-08-08T10:16:17;21.70;71.30
7562;DHT22;3822;48.784;9.174;2023-08-08T10:19:05;21.80;72.10
7562;DHT22;3822;48.784;9.174;2023-08-08T10:21:41;21.80;68.70
7562;DHT22;3822;48.784;9.174;2023-08-08T10:24:12;21.80;66.70
7562;DHT22;3822;48.784;9.174;2023-08-08T10:29:38;21.90;65.90
7562;DHT22;3822;48.784;9.174;2023-08-08T10:32:05;21.90;65.60
7562;DHT22;3822;48.784;9.174;2023-08-08T10:34:40;22.00;65.00
7562;DHT22;3822;48.784;9.174;2023-08-08T10:37:16;22.00;64.90
7562;DHT22;3822;48.784;9.174;2023-08-08T10:42:20;22.20;64.00
7562;DHT22;3822;48.784;9.174;2023-08-08T10:44:56;22.20;63.40
7562;DHT22;3822;48.784;9.174;2023-08-08T10:47:31;22.20;61.80
7562;DHT22;3822;48.784;9.174;2023-08-08T10:50:12;22.20;61.10
7562;DHT22;3822;48.784;9.174;2023-08-08T10:55:19;22.20;58.90
7562;DHT22;3822;48.784;9.174;2023-08-08T10:57:56;22.20;59.20
7562;DHT22;3822;48.784;9.174;2023-08-08T11:00:41;22.20;59.50
7562;DHT22;3822;48.784;9.174;2023-08-08T11:03:08;22.30;60.00
7562;DHT22;3822;48.784;9.174;2023-08-08T11:05:40;22.30;59.20
7562;DHT22;3822;48.784;9.174;2023-08-08T11:08:13;22.30;59.70
7562;DHT22;3822;48.784;9.174;2023-08-08T11:10:40;22.40;59.40
7562;DHT22;3822;48.784;9.174;2023-08-08T11:13:08;22.40;60.30
7562;DHT22;3822;48.784;9.174;2023-08-08T11:15:37;22.50;60.00
7562;DHT22;3822;48.784;9.174;2023-08-08T11:18:04;22.50;59.30
7562;DHT22;3822;48.784;9.174;2023-08-08T11:20:31;22.50;58.70
7562;DHT22;3822;48.784;9.174;2023-08-08T11:23:01;22.50;58.30
7562;DHT22;3822;48.784;9.174;2023-08-08T11:25:30;22.60;58.40
7562;DHT22;3822;48.784;9.174;2023-08-08T11:27:57;22.60;59.30
7562;DHT22;3822;48.784;9.174;2023-08-08T11:30:32;22.60;59.20
7562;DHT22;3822;48.784;9.174;2023-08-08T11:33:06;22.60;59.50
7562;DHT22;3822;48.784;9.174;2023-08-08T11:35:42;22.60;58.20
7562;DHT22;3822;48.784;9.174;2023-08-08T11:38:13;22.60;57.60
7562;DHT22;3822;48.784;9.174;2023-08-08T11:40:39;22.70;57.60
7562;DHT22;3822;48.784;9.174;2023-08-08T11:43:08;22.80;56.20
7562;DHT22;3822;48.784;9.174;2023-08-08T11:45:38;22.80;56.40
7562;DHT22;3822;48.784;9.174;2023-08-08T11:48:04;22.90;56.50
7562;DHT22;3822;48.784;9.174;2023-08-08T11:50:31;23.00;56.80
7562;DHT22;3822;48.784;9.174;2023-08-08T11:53:06;23.10;57.00
7562;DHT22;3822;48.784;9.174;2023-08-08T11:55:32;23.10;57.20
7562;DHT22;3822;48.784;9.174;2023-08-08T11:58:01;23.10;57.80
7562;DHT22;3822;48.784;9.174;2023-08-08T12:00:30;23.20;56.70
7562;DHT22;3822;48.784;9.174;2023-08-08T12:02:57;23.20;55.40
7562;DHT22;3822;48.784;9.174;2023-08-08T12:05:42;23.20;55.60
7562;DHT22;3822;48.784;9.174;2023-08-08T12:08:15;23.30;55.20
7562;DHT22;3822;48.784;9.174;2023-08-08T12:10:52;23.30;55.10
7562;DHT22;3822;48.784;9.174;2023-08-08T12:13:26;23.40;55.50
7562;DHT22;3822;48.784;9.174;2023-08-08T12:15:54;23.50;55.70
7562;DHT22;3822;48.784;9.174;2023-08-08T12:18:26;23.60;55.20
7562;DHT22;3822;48.784;9.174;2023-08-08T12:20:53;23.60;54.80
7562;DHT22;3822;48.784;9.174;2023-08-08T12:23:19;23.70;54.50
7562;DHT22;3822;48.784;9.174;2023-08-08T12:25:45;23.70;54.10
7562;DHT22;3822;48.784;9.174;2023-08-08T12:28:18;23.70;54.00
7562;DHT22;3822;48.784;9.174;2023-08-08T12:30:45;23.80;54.30
7562;DHT22;3822;48.784;9.174;2023-08-08T12:33:14;23.80;53.80
7562;DHT22;3822;48.784;9.174;2023-08-08T12:35:41;23.90;53.40
7562;DHT22;3822;48.784;9.174;2023-08-08T12:38:07;23.90;53.50
7562;DHT22;3822;48.784;9.174;2023-08-08T12:40:33;23.90;53.90
7562;DHT22;3822;48.784;9.174;2023-08-08T12:43:03;23.90;54.30
7562;DHT22;3822;48.784;9.174;2023-08-08T12:45:29;23.90;54.60
7562;DHT22;3822;48.784;9.174;2023-08-08T12:47:56;23.90;55.30
7562;DHT22;3822;48.784;9.174;2023-08-08T12:50:22;24.00;55.20
7562;DHT22;3822;48.784;9.174;2023-08-08T12:52:57;24.00;54.60
7562;DHT22;3822;48.784;9.174;2023-08-08T12:55:26;24.00;54.80
7562;DHT22;3822;48.784;9.174;2023-08-08T12:57:55;24.10;54.40
7562;DHT22;3822;48.784;9.174;2023-08-08T13:00:29;24.20;54.40
7562;DHT22;3822;48.784;9.174;2023-08-08T13:02:58;24.30;53.80
7562;DHT22;3822;48.784;9.174;2023-08-08T13:05:27;24.40;53.90
7562;DHT22;3822;48.784;9.174;2023-08-08T13:07:53;24.40;53.60
7562;DHT22;3822;48.784;9.174;2023-08-08T13:10:19;24.50;54.00
7562;DHT22;3822;48.784;9.174;2023-08-08T13:12:53;24.50;53.90
7562;DHT22;3822;48.784;9.174;2023-08-08T13:15:21;24.50;53.90
7562;DHT22;3822;48.784;9.174;2023-08-08T13:17:50;24.40;54.10
7562;DHT22;3822;48.784;9.174;2023-08-08T13:20:16;24.40;54.30
7562;DHT22;3822;48.784;9.174;2023-08-08T13:22:43;24.30;54.50
7562;DHT22;3822;48.784;9.174;2023-08-08T13:25:09;24.30;55.20
7562;DHT22;3822;48.784;9.174;2023-08-08T13:27:53;24.30;55.90
7562;DHT22;3822;48.784;9.174;2023-08-08T13:30:19;24.20;56.60
7562;DHT22;3822;48.784;9.174;2023-08-08T13:32:50;24.20;57.40
7562;DHT22;3822;48.784;9.174;2023-08-08T13:35:16;24.30;57.50
7562;DHT22;3822;48.784;9.174;2023-08-08T13:37:43;24.30;56.80
7562;DHT22;3822;48.784;9.174;2023-08-08T13:40:18;24.30;57.00
7562;DHT22;3822;48.784;9.174;2023-08-08T13:42:51;24.30;56.70
7562;DHT22;3822;48.784;9.174;2023-08-08T13:45:17;24.40;56.50
7562;DHT22;3822;48.784;9.174;2023-08-08T13:47:49;24.40;56.00
7562;DHT22;3822;48.784;9.174;2023-08-08T13:50:17;24.30;55.40
7562;DHT22;3822;48.784;9.174;2023-08-08T13:52:44;24.30;55.80
7562;DHT22;3822;48.784;9.174;2023-08-08T13:55:13;24.30;56.30
7562;DHT22;3822;48.784;9.174;2023-08-08T13:57:39;24.30;56.40
7562;DHT22;3822;48.784;9.174;2023-08-08T14:00:06;24.40;56.20
7562;DHT22;3822;48.784;9.174;2023-08-08T14:02:40;24.50;55.70
7562;DHT22;3822;48.784;9.174;2023-08-08T14:05:07;24.50;54.80
7562;DHT22;3822;48.784;9.174;2023-08-08T14:07:34;24.60;55.10
7562;DHT22;3822;48.784;9.174;2023-08-08T14:10:06;24.70;55.30
7562;DHT22;3822;48.784;9.174;2023-08-08T14:12:38;24.70;55.10
7562;DHT22;3822;48.784;9.174;2023-08-08T14:15:04;24.70;54.50
7562;DHT22;3822;48.784;9.174;2023-08-08T14:17:31;24.60;54.80
7562;DHT22;3822;48.784;9.174;2023-08-08T14:20:01;24.60;54.90
7562;DHT22;3822;48.784;9.174;2023-08-08T14:22:27;24.60;55.30
7562;DHT22;3822;48.784;9.174;2023-08-08T14:24:54;24.60;55.30
7562;DHT22;3822;48.784;9.174;2023-08-08T14:27:20;24.60;54.80
7562;DHT22;3822;48.784;9.174;2023-08-08T14:29:50;24.50;55.00
7562;DHT22;3822;48.784;9.174;2023-08-08T14:32:16;24.50;55.40
7562;DHT22;3822;48.784;9.174;2023-08-08T14:34:43;24.50;55.60
7562;DHT22;3822;48.784;9.174;2023-08-08T14:37:09;24.50;55.90
7562;DHT22;3822;48.784;9.174;2023-08-08T14:39:43;24.50;55.90
7562;DHT22;3822;48.784;9.174;2023-08-08T14:42:10;24.40;56.10
7562;DHT22;3822;48.784;9.174;2023-08-08T14:44:47;24.40;56.30
7562;DHT22;3822;48.784;9.174;2023-08-08T14:47:14;24.30;56.30
7562;DHT22;3822;48.784;9.174;2023-08-08T14:49:49;24.20;56.50
7562;DHT22;3822;48.784;9.174;2023-08-08T14:52:19;23.80;56.40
7562;DHT22;3822;48.784;9.174;2023-08-08T14:54:46;24.20;56.70
7562;DHT22;3822;48.784;9.174;2023-08-08T14:57:12;24.10;56.80
7562;DHT22;3822;48.784;9.174;2023-08-08T14:59:42;24.00;56.90
7562;DHT22;3822;48.784;9.174;2023-08-08T15:02:09;24.00;57.20
7562;DHT22;3822;48.784;9.174;2023-08-08T15:04:35;23.90;57.30
7562;DHT22;3822;48.784;9.174;2023-08-08T15:07:01;23.90;57.20
7562;DHT22;3822;48.784;9.174;2023-08-08T15:09:31;23.80;57.30
7562;DHT22;3822;48.784;9.174;2023-08-08T15:11:57;23.80;57.70
7562;DHT22;3822;48.784;9.174;2023-08-08T15:14:23;23.70;57.80
7562;DHT22;3822;48.784;9.174;2023-08-08T15:16:51;23.60;58.00
7562;DHT22;3822;48.784;9.174;2023-08-08T15:19:20;23.60;58.40
7562;DHT22;3822;48.784;9.174;2023-08-08T15:21:46;23.50;58.60
7562;DHT22;3822;48.784;9.174;2023-08-08T15:24:21;23.50;58.80
7562;DHT22;3822;48.784;9.174;2023-08-08T15:26:47;23.40;59.00
7562;DHT22;3822;48.784;9.174;2023-08-08T15:29:13;23.40;59.30
7562;DHT22;3822;48.784;9.174;2023-08-08T15:31:43;23.40;59.20
7562;DHT22;3822;48.784;9.174;2023-08-08T15:34:09;23.50;59.40
7562;DHT22;3822;48.784;9.174;2023-08-08T15:36:38;23.60;58.90
7562;DHT22;3822;48.784;9.174;2023-08-08T15:39:07;23.60;58.60
7562;DHT22;3822;48.784;9.174;2023-08-08T15:41:33;23.70;58.60
7562;DHT22;3822;48.784;9.174;2023-08-08T15:44:08;23.70;58.50
7562;DHT22;3822;48.784;9.174;2023-08-08T15:46:34;23.70;58.50
7562;DHT22;3822;48.784;9.174;2023-08-08T15:49:01;23.60;58.80
7562;DHT22;3822;48.784;9.174;2023-08-08T15:51:30;23.50;59.10
7562;DHT22;3822;48.784;9.174;2023-08-08T15:53:57;23.40;59.20
7562;DHT22;3822;48.784;9.174;2023-08-08T15:56:23;23.40;59.30
7562;DHT22;3822;48.784;9.174;2023-08-08T15:58:49;23.30;59.60
7562;DHT22;3822;48.784;9.174;2023-08-08T16:01:23;23.30;60.00
7562;DHT22;3822;48.784;9.174;2023-08-08T16:03:49;23.20;60.20
7562;DHT22;3822;48.784;9.174;2023-08-08T16:06:19;23.20;60.40
7562;DHT22;3822;48.784;9.174;2023-08-08T16:08:45;23.20;60.70
7562;DHT22;3822;48.784;9.174;2023-08-08T16:11:11;23.20;60.70
7562;DHT22;3822;48.784;9.174;2023-08-08T16:13:43;23.20;60.80
7562;DHT22;3822;48.784;9.174;2023-08-08T16:16:10;23.20;60.90
7562;DHT22;3822;48.784;9.174;2023-08-08T16:18:36;23.30;60.90
7562;DHT22;3822;48.784;9.174;2023-08-08T16:21:05;23.30;60.90
7562;DHT22;3822;48.784;9.174;2023-08-08T16:23:34;23.30;60.90
7562;DHT22;3822;48.784;9.174;2023-08-08T16:26:06;23.30;60.70